Time;durP1;ratioP1;P1;durP2;ratioP2;P2;SDS_P1;SDS_P2;PMS_P1;PMS_P2;Temp;Humidity;BMP_temperature;BMP_pressure;BME280_temperature;BME280_humidity;BME280_pressure;Samples;Min_cycle;Max_cycle;Signal;HPM_P1;HPM_P2
2022/01/03 05:00:43;;;;;;;3.90;2.00;;;9.70;99.70;;;;;;4994003;28;20176;-60
2022/01/03 05:03:11;;;;;;;6.20;1.83;;;9.60;99.70;;;;;;4993780;28;20552;-63
2022/01/03 05:05:38;;;;;;;3.80;2.03;;;9.60;99.70;;;;;;4993634;28;20454;-65
2022/01/03 05:08:05;;;;;;;6.73;2.40;;;9.60;99.70;;;;;;4993247;28;20454;-64
2022/01/03 05:10:33;;;;;;;7.43;2.67;;;9.60;99.70;;;;;;4993627;28;20477;-62
2022/01/03 05:13:00;;;;;;;5.53;2.50;;;9.60;99.70;;;;;;4993271;28;20482;-63
2022/01/03 05:15:26;;;;;;;6.53;2.10;;;9.50;99.70;;;;;;4993446;28;20446;-63
2022/01/03 05:17:54;;;;;;;7.33;2.10;;;9.50;99.70;;;;;;4992264;28;20446;-63
2022/01/03 05:20:21;;;;;;;5.30;2.00;;;9.50;99.70;;;;;;4993425;28;20450;-60
2022/01/03 05:22:48;;;;;;;5.50;2.30;;;9.50;99.70;;;;;;4993408;28;20442;-62
2022/01/03 05:25:14;;;;;;;6.63;2.40;;;9.40;99.70;;;;;;5065638;23;20493;-68
2022/01/03 05:27:42;;;;;;;9.50;3.17;;;9.40;99.70;;;;;;5011948;28;20445;-68
2022/01/03 05:30:11;;;;;;;10.83;3.87;;;9.50;99.70;;;;;;5012563;28;20442;-69
2022/01/03 05:32:38;;;;;;;9.00;3.20;;;9.50;99.70;;;;;;5012860;28;20477;-68
2022/01/03 05:35:06;;;;;;;7.07;2.97;;;9.50;99.70;;;;;;5012776;28;21014;-68
2022/01/03 05:37:33;;;;;;;12.97;3.20;;;9.50;99.70;;;;;;5012949;28;20854;-69
2022/01/03 05:40:00;;;;;;;8.77;3.00;;;9.40;99.70;;;;;;5012471;28;20449;-69
2022/01/03 05:42:26;;;;;;;7.50;2.97;;;9.40;99.70;;;;;;5012810;28;20446;-69
2022/01/03 05:44:53;;;;;;;7.63;2.60;;;9.40;99.70;;;;;;5012470;28;20470;-68
2022/01/03 05:47:20;;;;;;;7.00;3.70;;;9.40;99.70;;;;;;5012936;28;20539;-68
2022/01/03 05:49:46;;;;;;;8.63;2.50;;;9.50;99.70;;;;;;5012179;28;20442;-69
2022/01/03 05:52:14;;;;;;;9.97;2.43;;;9.50;99.70;;;;;;5012767;28;20452;-68
2022/01/03 05:54:41;;;;;;;7.67;2.60;;;9.40;99.70;;;;;;5012446;28;20492;-68
2022/01/03 05:57:08;;;;;;;10.10;3.00;;;9.40;99.70;;;;;;5012498;28;20851;-69
2022/01/03 05:59:34;;;;;;;5.30;2.40;;;9.30;99.70;;;;;;5012022;28;20452;-68
2022/01/03 06:02:03;;;;;;;10.10;2.40;;;9.10;99.70;;;;;;5012442;28;20500;-69
2022/01/03 06:04:41;;;;;;;8.23;3.07;;;9.10;99.70;;;;;;5012301;28;20501;-68
2022/01/03 06:07:09;;;;;;;7.33;2.30;;;9.10;99.70;;;;;;5012556;28;20930;-69
2022/01/03 06:09:38;;;;;;;8.43;2.40;;;9.20;99.70;;;;;;5011916;28;20472;-68
2022/01/03 06:12:05;;;;;;;8.33;2.57;;;9.30;99.70;;;;;;5012329;28;20456;-68
2022/01/03 06:14:32;;;;;;;5.23;2.20;;;9.30;99.70;;;;;;5011947;28;21015;-69
2022/01/03 06:16:59;;;;;;;7.83;2.23;;;9.30;99.70;;;;;;5012173;28;20521;-68
2022/01/03 06:19:28;;;;;;;6.17;2.30;;;9.40;99.70;;;;;;5011376;28;20446;-69
2022/01/03 06:21:54;;;;;;;6.57;2.50;;;9.50;99.70;;;;;;5012118;28;20970;-68
2022/01/03 06:24:21;;;;;;;8.17;2.20;;;9.60;99.70;;;;;;5011892;28;20473;-68
2022/01/03 06:26:49;;;;;;;6.20;2.20;;;9.60;99.70;;;;;;5012079;28;20456;-68
2022/01/03 06:29:18;;;;;;;5.67;2.67;;;9.60;99.70;;;;;;5011645;28;20457;-68
2022/01/03 06:31:45;;;;;;;6.93;2.63;;;9.60;99.70;;;;;;5012045;28;20869;-68
2022/01/03 06:34:12;;;;;;;9.00;2.70;;;9.60;99.70;;;;;;5011668;28;20863;-68
2022/01/03 06:36:39;;;;;;;7.60;2.23;;;9.60;99.70;;;;;;5011972;28;20449;-69
2022/01/03 06:39:09;;;;;;;6.77;2.10;;;9.60;99.70;;;;;;5011464;28;20523;-69
2022/01/03 06:41:37;;;;;;;7.70;2.40;;;9.60;99.70;;;;;;5011810;28;20455;-68
2022/01/03 06:44:06;;;;;;;6.83;2.20;;;9.60;99.70;;;;;;5011764;28;20462;-69
2022/01/03 06:46:33;;;;;;;7.60;2.03;;;9.60;99.70;;;;;;5011724;28;20977;-68
2022/01/03 06:49:02;;;;;;;5.93;2.17;;;9.70;99.70;;;;;;5011340;28;20967;-68
2022/01/03 06:51:34;;;;;;;5.10;2.10;;;9.70;99.70;;;;;;5011594;28;21061;-69
2022/01/03 06:54:01;;;;;;;10.90;2.20;;;9.70;99.70;;;;;;5011636;28;20497;-68
2022/01/03 06:56:27;;;;;;;8.97;2.87;;;9.70;99.70;;;;;;5011370;28;20507;-69
2022/01/03 06:58:54;;;;;;;10.47;2.47;;;9.70;99.70;;;;;;5011059;28;20487;-68
2022/01/03 07:01:22;;;;;;;7.87;2.80;;;9.60;99.70;;;;;;5011557;28;20508;-69
2022/01/03 07:03:49;;;;;;;8.10;2.70;;;9.50;99.70;;;;;;5011498;28;20507;-69
2022/01/03 07:06:15;;;;;;;7.03;2.90;;;9.40;99.70;;;;;;5011715;28;20445;-68
2022/01/03 07:08:42;;;;;;;10.47;3.00;;;9.40;99.70;;;;;;5011118;28;20433;-69
2022/01/03 07:11:09;;;;;;;10.33;3.17;;;9.30;99.70;;;;;;5011383;28;20449;-68
2022/01/03 07:13:43;;;;;;;11.00;3.17;;;9.20;99.70;;;;;;5011314;28;20473;-69
2022/01/03 07:19:00;;;;;;;6.27;2.40;;;9.10;99.70;;;;;;5010839;28;20424;-68
2022/01/03 07:21:28;;;;;;;9.97;2.60;;;9.00;99.70;;;;;;5011435;28;20553;-68
2022/01/03 07:23:55;;;;;;;6.50;2.73;;;9.00;99.70;;;;;;5011176;28;20842;-69
2022/01/03 07:26:22;;;;;;;7.13;2.50;;;8.90;99.70;;;;;;5011347;28;20446;-69
2022/01/03 07:28:49;;;;;;;7.17;2.50;;;9.00;99.70;;;;;;5011117;28;21121;-69
2022/01/03 07:31:16;;;;;;;10.53;2.90;;;8.90;99.70;;;;;;5011449;28;20453;-69
2022/01/03 07:33:43;;;;;;;7.67;2.30;;;8.90;99.70;;;;;;5011144;28;20485;-69
2022/01/03 07:36:11;;;;;;;9.03;2.97;;;9.00;99.70;;;;;;5011144;28;20458;-68
2022/01/03 07:38:39;;;;;;;9.47;3.03;;;8.90;99.70;;;;;;5010864;28;20460;-68
2022/01/03 07:41:06;;;;;;;8.60;2.87;;;8.90;99.70;;;;;;5011175;28;20536;-68
2022/01/03 07:43:33;;;;;;;6.97;2.60;;;8.90;99.70;;;;;;5011160;28;20441;-68
2022/01/03 07:45:59;;;;;;;8.47;3.00;;;8.90;99.70;;;;;;5011100;28;20866;-68
2022/01/03 07:48:26;;;;;;;8.87;2.90;;;8.90;99.70;;;;;;5010803;28;20522;-68
2022/01/03 07:50:53;;;;;;;6.10;2.60;;;8.90;99.70;;;;;;5010952;28;20450;-69
2022/01/03 07:53:21;;;;;;;9.10;2.93;;;9.00;99.70;;;;;;5011121;28;20460;-69
2022/01/03 07:55:47;;;;;;;7.50;3.00;;;9.00;99.70;;;;;;5010947;28;20524;-69
2022/01/03 07:58:16;;;;;;;5.70;2.70;;;9.00;99.70;;;;;;5010658;28;20445;-69
2022/01/03 08:00:44;;;;;;;7.10;2.20;;;9.00;99.70;;;;;;5010942;28;20453;-68
2022/01/03 08:03:10;;;;;;;6.83;2.47;;;9.10;99.70;;;;;;5011024;28;20476;-69
2022/01/03 08:05:37;;;;;;;7.07;2.63;;;9.20;99.70;;;;;;5010787;28;20461;-69
2022/01/03 08:08:08;;;;;;;7.83;2.27;;;9.20;99.70;;;;;;5010620;28;20445;-68
2022/01/03 08:10:38;;;;;;;13.20;2.60;;;9.30;99.70;;;;;;5013567;28;20935;-69
2022/01/03 08:13:05;;;;;;;12.07;2.80;;;9.40;99.70;;;;;;5014532;28;20455;-69
2022/01/03 08:15:32;;;;;;;7.37;2.70;;;9.30;99.70;;;;;;5014254;28;20485;-69
2022/01/03 08:17:58;;;;;;;10.20;2.60;;;9.30;99.70;;;;;;5013647;28;20449;-69
2022/01/03 08:20:26;;;;;;;8.50;2.70;;;9.20;99.70;;;;;;5014452;28;20825;-69
2022/01/03 08:22:53;;;;;;;8.90;2.57;;;9.20;99.70;;;;;;5014236;28;20820;-68
2022/01/03 08:25:20;;;;;;;6.47;2.20;;;9.30;99.70;;;;;;5014059;28;20477;-69
2022/01/03 08:27:48;;;;;;;10.20;2.60;;;9.30;99.70;;;;;;5013787;28;20449;-66
2022/01/03 08:30:15;;;;;;;12.30;2.60;;;9.30;99.70;;;;;;5014176;28;20445;-68
2022/01/03 08:32:41;;;;;;;8.60;2.70;;;9.30;99.70;;;;;;5014198;28;20446;-68
2022/01/03 08:35:09;;;;;;;8.00;2.43;;;9.30;99.70;;;;;;5013893;28;20884;-69
2022/01/03 08:37:36;;;;;;;10.97;2.73;;;9.20;99.70;;;;;;5013936;28;20442;-69
2022/01/03 08:40:06;;;;;;;8.93;2.50;;;9.20;99.70;;;;;;5013718;28;20823;-69
2022/01/03 08:42:33;;;;;;;7.53;2.27;;;9.30;99.70;;;;;;5013801;28;20449;-68
2022/01/03 08:45:01;;;;;;;6.83;2.80;;;9.40;99.70;;;;;;5013812;28;20469;-69
2022/01/03 08:47:28;;;;;;;5.83;2.40;;;9.50;99.70;;;;;;5013816;28;20464;-69
2022/01/03 08:49:55;;;;;;;9.87;2.90;;;9.60;99.70;;;;;;5013557;28;20442;-69
2022/01/03 08:52:22;;;;;;;9.77;2.40;;;9.60;99.70;;;;;;5013784;28;20448;-68
2022/01/03 08:54:49;;;;;;;8.60;2.57;;;9.70;99.70;;;;;;5013593;28;20481;-69
2022/01/03 08:57:16;;;;;;;7.37;2.37;;;9.80;99.70;;;;;;5013483;28;20450;-69
2022/01/03 08:59:43;;;;;;;6.80;2.43;;;9.80;99.70;;;;;;5009645;28;20548;-69
2022/01/03 09:02:12;;;;;;;6.00;2.17;;;9.90;99.70;;;;;;5012173;28;20449;-68
2022/01/03 09:04:39;;;;;;;7.97;2.37;;;10.00;99.70;;;;;;5012804;28;20476;-69
2022/01/03 09:07:06;;;;;;;6.77;2.47;;;10.00;99.70;;;;;;5010127;28;20457;-69
2022/01/03 09:09:34;;;;;;;7.10;2.70;;;10.10;99.70;;;;;;5012188;28;20441;-68
2022/01/03 09:12:00;;;;;;;7.57;2.33;;;10.10;99.70;;;;;;5013190;28;20504;-68
2022/01/03 09:14:27;;;;;;;6.93;2.80;;;10.20;99.70;;;;;;5011590;28;20841;-68
2022/01/03 09:16:54;;;;;;;7.63;2.90;;;10.10;99.70;;;;;;5013168;28;20454;-69
2022/01/03 09:19:22;;;;;;;5.90;2.40;;;10.20;99.70;;;;;;5011969;28;20453;-69
2022/01/03 09:21:49;;;;;;;7.27;2.33;;;10.30;99.70;;;;;;5012423;28;20445;-68
2022/01/03 09:24:26;;;;;;;6.20;2.20;;;10.30;99.70;;;;;;5012520;28;20473;-68
2022/01/03 09:29:37;;;;;;;9.47;2.30;;;10.30;99.70;;;;;;5012044;28;20519;-68
2022/01/03 09:32:06;;;;;;;8.70;2.10;;;10.30;99.70;;;;;;5012432;28;20453;-69
2022/01/03 09:34:34;;;;;;;7.03;2.10;;;10.30;99.70;;;;;;5012187;28;20516;-68
2022/01/03 09:37:02;;;;;;;6.47;2.20;;;10.40;99.70;;;;;;5000536;28;21556;-69
2022/01/03 09:39:29;;;;;;;8.07;2.10;;;10.40;99.70;;;;;;5005956;28;20461;-68
2022/01/03 09:42:02;;;;;;;7.17;2.47;;;10.40;99.70;;;;;;4999112;28;20540;-69
2022/01/03 09:44:30;;;;;;;7.40;2.33;;;10.50;99.70;;;;;;4999511;28;20860;-69
2022/01/03 09:47:01;;;;;;;7.30;2.33;;;10.50;99.70;;;;;;5009050;28;20980;-68
2022/01/03 09:49:32;;;;;;;6.90;2.13;;;10.50;99.70;;;;;;5005422;28;20494;-69
2022/01/03 09:52:00;;;;;;;4.70;2.20;;;10.50;99.70;;;;;;5009334;28;20457;-69
2022/01/03 09:54:28;;;;;;;5.03;2.00;;;10.50;99.70;;;;;;5003822;28;20508;-69
2022/01/03 09:56:57;;;;;;;5.47;2.07;;;10.50;99.70;;;;;;5009528;28;20481;-69
2022/01/03 09:59:24;;;;;;;5.97;2.17;;;10.60;99.70;;;;;;5003947;28;20450;-69
2022/01/03 10:01:52;;;;;;;8.50;2.13;;;10.60;99.70;;;;;;5008095;28;20445;-68
2022/01/03 10:04:20;;;;;;;7.03;2.37;;;10.50;99.70;;;;;;5004547;28;20470;-68
2022/01/03 10:06:47;;;;;;;9.50;2.70;;;10.50;99.70;;;;;;4998709;28;20445;-69
2022/01/03 10:09:15;;;;;;;13.57;3.60;;;10.50;99.70;;;;;;5002059;28;20450;-69
2022/01/03 10:11:42;;;;;;;12.77;3.70;;;10.50;99.70;;;;;;5002407;28;20462;-69
2022/01/03 10:14:09;;;;;;;14.43;3.77;;;10.50;99.70;;;;;;5001904;28;20457;-69
2022/01/03 10:16:36;;;;;;;14.73;5.00;;;10.50;99.70;;;;;;5001427;28;20447;-68
2022/01/03 10:19:02;;;;;;;14.57;4.60;;;10.60;99.70;;;;;;5001819;28;20450;-69
2022/01/03 10:21:38;;;;;;;37.13;10.30;;;10.60;99.70;;;;;;5001655;28;20453;-69
2022/01/03 10:24:06;;;;;;;33.50;10.67;;;10.60;99.70;;;;;;4991970;28;20497;-69
2022/01/03 10:26:37;;;;;;;41.13;12.30;;;10.70;99.70;;;;;;4999680;28;20472;-69
2022/01/03 10:29:14;;;;;;;30.00;9.40;;;10.70;99.70;;;;;;5005376;28;20454;-68
2022/01/03 10:31:42;;;;;;;19.23;6.70;;;10.70;99.70;;;;;;5002139;28;20458;-68
2022/01/03 10:34:11;;;;;;;15.57;4.80;;;10.70;99.70;;;;;;5000409;28;20474;-69
2022/01/03 10:36:39;;;;;;;9.90;3.33;;;10.80;99.70;;;;;;4999860;28;20446;-69
2022/01/03 10:39:14;;;;;;;10.50;5.00;;;10.80;99.70;;;;;;4997371;28;20800;-69
2022/01/03 10:41:43;;;;;;;7.87;3.90;;;10.70;99.70;;;;;;4994882;28;21185;-68
2022/01/03 10:44:10;;;;;;;8.63;3.23;;;10.70;99.70;;;;;;5011066;28;20465;-68
2022/01/03 10:46:39;;;;;;;9.07;2.90;;;10.70;99.70;;;;;;5011431;28;20441;-69
2022/01/03 10:49:11;;;;;;;8.60;2.90;;;10.70;99.70;;;;;;5011211;28;20458;-69
2022/01/03 10:51:38;;;;;;;11.13;3.53;;;10.70;99.70;;;;;;5011040;28;20444;-69
2022/01/03 10:54:09;;;;;;;9.87;2.67;;;10.70;99.70;;;;;;5011421;28;20469;-69
2022/01/03 10:56:39;;;;;;;7.37;2.50;;;10.80;99.70;;;;;;5011180;28;20775;-69
2022/01/03 10:59:22;;;;;;;8.30;2.40;;;10.80;99.70;;;;;;5004605;28;20486;-69
2022/01/03 11:01:52;;;;;;;5.97;2.50;;;10.80;99.70;;;;;;5002394;28;20446;-69
2022/01/03 11:04:29;;;;;;;10.00;2.40;;;10.80;99.70;;;;;;5000063;28;20549;-68
2022/01/03 11:13:09;;;;;;;9.73;2.60;;;10.80;99.70;;;;;;5010839;28;20464;-69
2022/01/03 11:15:39;;;;;;;5.57;2.20;;;10.70;99.70;;;;;;5011109;28;20485;-69
2022/01/03 11:18:11;;;;;;;10.30;2.67;;;10.80;99.70;;;;;;5010390;28;20838;-69
2022/01/03 11:20:38;;;;;;;9.33;2.83;;;10.80;99.70;;;;;;5011225;28;20454;-68
2022/01/03 11:23:04;;;;;;;4.60;2.07;;;10.80;99.70;;;;;;5010481;28;20512;-68
2022/01/03 11:25:33;;;;;;;6.93;2.23;;;10.90;99.70;;;;;;5027402;28;20472;-65
2022/01/03 11:28:01;;;;;;;6.30;2.30;;;10.90;99.70;;;;;;5029646;28;20467;-64
2022/01/03 11:30:28;;;;;;;5.43;2.27;;;10.90;99.70;;;;;;5014391;28;20441;-65
2022/01/03 11:32:57;;;;;;;11.97;2.20;;;11.00;99.70;;;;;;5023334;28;20527;-66
2022/01/03 11:35:24;;;;;;;11.53;2.43;;;11.00;99.70;;;;;;5030510;28;20476;-64
2022/01/03 11:37:52;;;;;;;6.60;2.10;;;10.90;99.70;;;;;;5029954;28;20455;-65
2022/01/03 11:40:19;;;;;;;8.53;2.60;;;11.00;99.70;;;;;;5030517;28;20455;-65
2022/01/03 11:42:48;;;;;;;9.07;2.37;;;11.00;99.70;;;;;;5030472;28;20449;-65
2022/01/03 11:45:15;;;;;;;10.03;2.47;;;10.90;99.70;;;;;;5034427;28;21004;-65
2022/01/03 11:47:42;;;;;;;5.17;2.07;;;10.90;99.70;;;;;;5028560;28;20685;-66
2022/01/03 11:50:11;;;;;;;9.83;2.27;;;10.90;99.70;;;;;;5026441;28;20461;-65
2022/01/03 11:52:41;;;;;;;5.27;2.20;;;11.00;99.70;;;;;;5031354;28;20854;-66
2022/01/03 11:55:09;;;;;;;7.07;2.43;;;11.00;99.70;;;;;;5031388;28;20476;-65
2022/01/03 11:58:08;;;;;;;6.40;2.20;;;11.00;99.70;;;;;;5022668;28;20433;-66
2022/01/03 12:03:40;;;;;;;9.63;2.30;;;11.00;99.70;;;;;;5024652;28;20432;-65
2022/01/03 12:06:10;;;;;;;7.80;2.10;;;11.00;99.70;;;;;;5023452;28;20457;-65
2022/01/03 12:08:39;;;;;;;11.97;2.43;;;11.00;99.70;;;;;;5022937;28;20555;-67
2022/01/03 12:11:18;;;;;;;7.60;2.80;;;11.00;99.70;;;;;;5024328;28;20468;-65
2022/01/03 12:13:52;;;;;;;7.53;2.10;;;11.10;99.70;;;;;;5022828;28;20448;-66
2022/01/03 12:16:36;;;;;;;3.50;1.83;;;11.00;99.70;;;;;;5023400;28;21010;-66
2022/01/03 12:19:06;;;;;;;7.77;1.90;;;11.10;99.70;;;;;;5025397;28;20469;-65
2022/01/03 12:21:57;;;;;;;7.23;2.20;;;11.00;99.70;;;;;;5023870;28;20930;-66
2022/01/03 12:24:54;;;;;;;5.00;1.90;;;11.00;99.70;;;;;;5020718;28;20512;-66
2022/01/03 12:27:43;;;;;;;5.30;2.10;;;11.10;99.70;;;;;;5011088;28;20437;-64
2022/01/03 12:30:30;;;;;;;6.60;1.83;;;11.10;99.70;;;;;;5005559;28;20461;-64
2022/01/03 12:33:17;;;;;;;6.30;2.00;;;11.10;99.70;;;;;;5005182;28;20838;-65
2022/01/03 12:35:46;;;;;;;7.50;1.80;;;11.20;99.70;;;;;;5000271;28;20489;-67
2022/01/03 12:38:29;;;;;;;6.60;1.77;;;11.10;99.70;;;;;;5002586;28;20450;-65
2022/01/03 12:41:03;;;;;;;4.17;1.77;;;11.10;99.70;;;;;;4998291;28;20462;-65
2022/01/03 12:43:46;;;;;;;3.83;1.80;;;11.10;99.70;;;;;;5005064;28;20438;-65
2022/01/03 12:46:21;;;;;;;7.93;2.10;;;11.10;99.70;;;;;;5006747;28;20435;-66
2022/01/03 12:48:48;;;;;;;5.00;1.80;;;11.10;99.70;;;;;;5002671;28;20462;-65
2022/01/03 12:51:17;;;;;;;4.67;2.20;;;11.10;99.70;;;;;;5004397;28;20463;-67
2022/01/03 12:53:48;;;;;;;7.47;2.50;;;11.10;99.70;;;;;;5010347;28;20845;-66
2022/01/03 12:56:17;;;;;;;7.97;2.47;;;11.10;99.70;;;;;;5008653;28;20539;-66
2022/01/03 12:58:46;;;;;;;8.77;2.20;;;11.10;99.70;;;;;;5017484;28;20458;-65
2022/01/03 13:01:26;;;;;;;5.80;1.90;;;11.20;99.70;;;;;;5012275;28;20882;-65
2022/01/03 13:03:54;;;;;;;7.27;2.20;;;11.10;99.70;;;;;;5012309;28;20476;-65
2022/01/03 13:06:22;;;;;;;5.30;1.90;;;11.10;99.70;;;;;;5012710;28;20450;-66
2022/01/03 13:09:18;;;;;;;6.60;2.27;;;11.00;99.70;;;;;;5009070;28;20528;-66
2022/01/03 13:11:47;;;;;;;5.73;2.10;;;11.00;99.70;;;;;;4987165;28;20450;-66
2022/01/03 13:14:19;;;;;;;5.80;2.10;;;11.00;99.70;;;;;;5010930;28;20469;-65
2022/01/03 13:16:47;;;;;;;6.87;2.70;;;11.00;99.70;;;;;;5012322;28;20477;-65
2022/01/03 13:19:15;;;;;;;6.63;2.70;;;11.00;99.70;;;;;;5001775;28;20472;-65
2022/01/03 13:21:44;;;;;;;8.07;2.80;;;11.00;99.70;;;;;;5004259;28;20777;-66
2022/01/03 13:24:15;;;;;;;10.50;3.67;;;11.10;99.70;;;;;;5005462;28;20468;-65
2022/01/03 13:27:01;;;;;;;8.83;3.27;;;11.10;99.70;;;;;;5020777;28;20499;-65
2022/01/03 13:29:30;;;;;;;6.63;3.00;;;11.10;99.70;;;;;;5020816;28;20472;-64
2022/01/03 13:31:57;;;;;;;7.13;3.03;;;11.10;99.70;;;;;;5023047;28;20449;-64
2022/01/03 13:34:28;;;;;;;8.77;2.90;;;11.10;99.70;;;;;;5023901;28;20473;-65
2022/01/03 13:36:56;;;;;;;5.83;2.50;;;11.10;99.70;;;;;;5020855;28;20535;-66
2022/01/03 13:39:25;;;;;;;5.63;1.90;;;11.20;99.70;;;;;;5024016;28;20945;-65
2022/01/03 13:41:56;;;;;;;4.70;1.90;;;11.20;99.70;;;;;;5025746;28;20456;-64
2022/01/03 13:44:40;;;;;;;5.60;2.20;;;11.20;99.70;;;;;;5024665;28;20839;-65
2022/01/03 13:49:54;;;;;;;5.67;2.07;;;11.10;99.70;;;;;;5020981;28;20452;-66
2022/01/03 13:52:30;;;;;;;6.23;2.33;;;11.20;99.70;;;;;;5023857;28;20485;-67
2022/01/03 13:55:02;;;;;;;5.13;2.00;;;11.10;99.70;;;;;;5022172;28;20481;-66
2022/01/03 13:57:36;;;;;;;5.30;2.10;;;11.10;99.70;;;;;;5021149;28;20473;-67
2022/01/03 14:00:04;;;;;;;6.67;2.47;;;11.10;99.70;;;;;;5020009;28;20451;-65
2022/01/03 14:02:31;;;;;;;7.87;2.00;;;11.10;99.70;;;;;;5021906;28;20484;-67
2022/01/03 14:04:58;;;;;;;3.90;1.90;;;11.10;99.70;;;;;;5020773;28;20549;-65
2022/01/03 14:07:25;;;;;;;4.20;2.10;;;11.10;99.70;;;;;;5022900;28;20528;-67
2022/01/03 14:09:57;;;;;;;4.33;1.80;;;11.10;99.70;;;;;;5024045;28;20445;-65
2022/01/03 14:12:25;;;;;;;4.97;1.80;;;11.10;99.70;;;;;;5020923;28;20827;-66
2022/01/03 14:14:56;;;;;;;6.67;2.30;;;11.10;99.70;;;;;;5021293;28;20539;-64
2022/01/03 14:17:24;;;;;;;5.20;1.90;;;11.00;99.70;;;;;;5021807;28;20484;-65
2022/01/03 14:20:01;;;;;;;6.23;2.83;;;11.00;99.70;;;;;;5020713;28;20450;-66
2022/01/03 14:22:34;;;;;;;4.30;1.87;;;11.00;99.70;;;;;;5019244;28;20452;-66
2022/01/03 14:25:04;;;;;;;6.50;2.77;;;10.90;99.70;;;;;;5019468;28;21087;-65
2022/01/03 14:27:33;;;;;;;8.33;3.30;;;10.90;99.70;;;;;;5022242;28;20451;-65
2022/01/03 14:30:20;;;;;;;5.50;2.37;;;10.90;99.70;;;;;;5018795;28;20445;-65
2022/01/03 14:32:49;;;;;;;5.50;2.30;;;10.90;99.70;;;;;;5021797;28;20544;-66
2022/01/03 14:35:29;;;;;;;5.90;1.87;;;10.90;99.70;;;;;;5020197;28;20485;-65
2022/01/03 14:38:01;;;;;;;5.50;2.37;;;10.90;99.70;;;;;;5018865;28;20964;-66
2022/01/03 14:40:39;;;;;;;5.43;2.30;;;10.90;99.70;;;;;;5020583;28;20891;-66
2022/01/03 14:43:06;;;;;;;4.47;1.90;;;10.80;99.70;;;;;;5021209;28;20531;-65
2022/01/03 14:45:35;;;;;;;8.77;2.00;;;10.90;99.70;;;;;;5020876;28;20465;-65
2022/01/03 14:48:03;;;;;;;7.00;1.90;;;10.90;99.70;;;;;;5017557;28;20452;-66
2022/01/03 14:50:31;;;;;;;4.90;2.00;;;10.90;99.70;;;;;;5019444;28;20446;-66
2022/01/03 14:52:59;;;;;;;6.63;2.40;;;10.80;99.70;;;;;;5018365;28;20450;-66
2022/01/03 14:55:29;;;;;;;3.57;1.90;;;10.80;99.70;;;;;;5018492;28;20500;-65
2022/01/03 14:57:56;;;;;;;8.50;2.30;;;10.80;99.70;;;;;;5021714;28;20821;-65
2022/01/03 15:00:23;;;;;;;5.37;2.40;;;10.80;99.70;;;;;;5019446;28;20459;-66
2022/01/03 15:02:54;;;;;;;6.50;2.30;;;10.80;99.70;;;;;;5022169;28;20563;-66
2022/01/03 15:05:21;;;;;;;5.67;2.13;;;10.80;99.70;;;;;;5019668;28;20457;-66
2022/01/03 15:07:48;;;;;;;5.30;2.30;;;10.70;99.70;;;;;;5020707;28;20445;-65
2022/01/03 15:10:17;;;;;;;5.90;2.40;;;10.70;99.70;;;;;;5018771;28;20444;-66
2022/01/03 15:12:44;;;;;;;4.63;1.70;;;10.70;99.70;;;;;;5020852;28;20459;-66
2022/01/03 15:15:11;;;;;;;4.60;1.90;;;10.70;99.70;;;;;;5019715;28;20477;-67
2022/01/03 15:17:38;;;;;;;4.90;2.33;;;10.60;99.70;;;;;;5018192;28;20489;-65
2022/01/03 15:20:08;;;;;;;8.30;2.43;;;10.60;99.70;;;;;;5024848;28;20503;-64
2022/01/03 15:22:36;;;;;;;5.23;2.33;;;10.60;99.70;;;;;;5022999;28;20523;-65
2022/01/03 15:25:03;;;;;;;6.90;2.17;;;10.60;99.70;;;;;;5012235;28;20497;-64
2022/01/03 15:27:30;;;;;;;6.10;2.00;;;10.50;99.70;;;;;;5003744;28;20453;-65
2022/01/03 15:29:57;;;;;;;5.70;2.13;;;10.60;99.70;;;;;;5004914;28;20449;-65
2022/01/03 15:32:24;;;;;;;4.80;1.90;;;10.50;99.70;;;;;;5003632;28;20454;-65
2022/01/03 15:34:51;;;;;;;5.30;2.20;;;10.50;99.70;;;;;;5003125;28;20485;-65
2022/01/03 15:37:19;;;;;;;6.67;2.30;;;10.50;99.70;;;;;;5004603;28;20487;-65
2022/01/03 15:39:46;;;;;;;6.43;2.30;;;10.50;99.70;;;;;;5005854;28;20806;-65
2022/01/03 15:42:13;;;;;;;5.70;2.00;;;10.40;99.70;;;;;;5001203;28;20446;-65
2022/01/03 15:44:39;;;;;;;5.30;2.20;;;10.40;99.70;;;;;;4998620;28;20462;-66
2022/01/03 15:47:07;;;;;;;5.30;2.00;;;10.50;99.70;;;;;;4999905;28;20962;-64
2022/01/03 15:49:35;;;;;;;6.63;2.20;;;10.40;99.70;;;;;;5008525;28;20454;-65
2022/01/03 15:52:02;;;;;;;3.97;1.80;;;10.40;99.70;;;;;;4996459;28;20457;-68
2022/01/03 15:54:31;;;;;;;6.40;2.13;;;10.40;99.70;;;;;;5008942;28;20472;-65
2022/01/03 15:56:59;;;;;;;4.97;1.90;;;10.40;99.70;;;;;;4999142;28;20514;-64
2022/01/03 15:59:26;;;;;;;4.40;2.20;;;10.40;99.70;;;;;;4996525;28;20461;-65
2022/01/03 16:01:52;;;;;;;4.03;2.00;;;10.40;99.70;;;;;;5007475;28;20849;-66
2022/01/03 16:04:22;;;;;;;5.00;2.13;;;10.30;99.70;;;;;;5010466;28;21053;-65
2022/01/03 16:06:50;;;;;;;6.00;2.43;;;10.30;99.70;;;;;;5002790;28;20953;-65
2022/01/03 16:09:19;;;;;;;6.67;2.40;;;10.20;99.70;;;;;;5004392;28;20462;-65
2022/01/03 16:11:48;;;;;;;6.00;2.40;;;10.20;99.70;;;;;;5005070;28;20445;-64
2022/01/03 16:14:15;;;;;;;6.90;2.20;;;10.20;99.70;;;;;;5011638;28;20466;-65
2022/01/03 16:16:42;;;;;;;6.17;2.20;;;10.20;99.70;;;;;;5011865;28;21079;-64
2022/01/03 16:19:09;;;;;;;5.07;2.53;;;10.20;99.70;;;;;;5010674;28;20818;-64
2022/01/03 16:21:36;;;;;;;4.50;2.27;;;10.20;99.70;;;;;;5011678;28;20445;-64
2022/01/03 16:24:04;;;;;;;4.70;2.33;;;10.30;99.70;;;;;;5014436;28;20833;-64
2022/01/03 16:26:30;;;;;;;6.60;2.17;;;10.30;99.70;;;;;;5023466;28;20460;-64
2022/01/03 16:29:08;;;;;;;4.17;2.20;;;10.30;99.70;;;;;;5023856;28;20460;-64
2022/01/03 16:31:35;;;;;;;5.87;2.20;;;10.30;99.70;;;;;;5023987;28;20551;-64
2022/01/03 16:34:02;;;;;;;6.53;2.30;;;10.30;99.70;;;;;;5030747;28;20467;-67
2022/01/03 16:36:29;;;;;;;4.70;2.00;;;10.30;99.70;;;;;;5024716;28;20480;-64
2022/01/03 16:38:56;;;;;;;4.10;2.23;;;10.30;99.70;;;;;;5017939;28;20520;-64
2022/01/03 16:41:23;;;;;;;6.80;2.37;;;10.30;99.70;;;;;;5023034;28;20446;-65
2022/01/03 16:43:50;;;;;;;6.67;2.30;;;10.30;99.70;;;;;;5019693;28;20471;-65
2022/01/03 16:46:18;;;;;;;4.87;2.40;;;10.30;99.70;;;;;;5028880;28;21162;-65
2022/01/03 16:48:45;;;;;;;4.40;2.20;;;10.20;99.70;;;;;;5030419;28;20798;-63
2022/01/03 16:51:12;;;;;;;4.63;2.30;;;10.10;99.70;;;;;;5027360;28;20528;-64
2022/01/03 16:53:39;;;;;;;5.00;2.17;;;10.10;99.70;;;;;;5022168;28;20456;-66
2022/01/03 16:56:08;;;;;;;10.97;2.90;;;10.10;99.70;;;;;;5023900;28;20457;-65
2022/01/03 16:58:34;;;;;;;4.97;2.50;;;10.10;99.70;;;;;;5024422;28;20815;-64
2022/01/03 17:01:01;;;;;;;7.70;2.40;;;10.10;99.70;;;;;;5024320;28;20978;-64
2022/01/03 17:03:30;;;;;;;5.60;2.30;;;10.10;99.70;;;;;;5024653;28;20477;-65
2022/01/03 17:05:57;;;;;;;5.00;2.30;;;10.10;99.70;;;;;;5022935;28;20861;-65
2022/01/03 17:08:24;;;;;;;7.03;2.90;;;10.10;99.70;;;;;;5024021;28;20442;-65
2022/01/03 17:10:50;;;;;;;6.50;2.30;;;10.10;99.70;;;;;;5021322;28;20506;-66
2022/01/03 17:13:17;;;;;;;8.40;2.63;;;10.10;99.70;;;;;;5023782;28;20828;-66
2022/01/03 17:15:44;;;;;;;9.97;3.03;;;10.10;99.70;;;;;;5023048;28;20477;-66
2022/01/03 17:18:11;;;;;;;12.63;2.90;;;10.10;99.70;;;;;;5024175;28;20484;-66
2022/01/03 17:20:41;;;;;;;6.60;2.20;;;10.10;99.70;;;;;;5024080;28;20961;-66
2022/01/03 17:23:08;;;;;;;4.23;2.60;;;10.10;99.70;;;;;;5025268;28;20467;-65
2022/01/03 17:25:40;;;;;;;7.83;2.77;;;10.10;99.70;;;;;;5011320;28;20485;-66
2022/01/03 17:28:07;;;;;;;4.50;2.20;;;10.20;99.70;;;;;;5011233;28;20449;-66
2022/01/03 17:30:34;;;;;;;6.30;2.60;;;10.20;99.70;;;;;;5011844;28;20473;-66
2022/01/03 17:33:02;;;;;;;4.93;2.40;;;10.20;99.70;;;;;;5008518;28;20524;-65
2022/01/03 17:35:28;;;;;;;4.20;2.20;;;10.10;99.70;;;;;;5015883;28;20468;-67
2022/01/03 17:37:57;;;;;;;7.27;2.47;;;10.10;99.70;;;;;;5011128;28;20485;-63
2022/01/03 17:40:24;;;;;;;8.30;2.50;;;10.20;99.70;;;;;;5011490;28;20465;-68
2022/01/03 17:42:50;;;;;;;9.30;3.00;;;10.20;99.70;;;;;;5010968;28;20446;-66
2022/01/03 17:45:17;;;;;;;6.77;2.80;;;10.20;99.70;;;;;;5013245;28;20463;-66
2022/01/03 17:47:44;;;;;;;6.50;2.70;;;10.10;99.70;;;;;;5013384;28;20525;-66
2022/01/03 17:50:11;;;;;;;9.70;2.70;;;10.10;99.70;;;;;;5010864;28;20446;-66
2022/01/03 17:52:38;;;;;;;6.37;2.83;;;10.10;99.70;;;;;;5015304;28;20454;-65
2022/01/03 17:55:07;;;;;;;6.17;2.67;;;10.10;99.70;;;;;;5011062;28;20496;-67
2022/01/03 17:57:34;;;;;;;6.60;2.50;;;10.10;99.70;;;;;;5010028;28;20481;-66
2022/01/03 18:00:01;;;;;;;7.27;2.60;;;10.00;99.70;;;;;;5007880;28;20490;-66
2022/01/03 18:02:28;;;;;;;7.60;2.43;;;10.00;99.70;;;;;;5009598;28;20485;-68
2022/01/03 18:04:55;;;;;;;6.10;2.57;;;10.00;99.70;;;;;;5006322;28;20473;-66
2022/01/03 18:07:22;;;;;;;6.10;2.40;;;9.90;99.70;;;;;;5001668;28;20538;-67
2022/01/03 18:09:49;;;;;;;4.97;2.40;;;9.90;99.70;;;;;;5009670;28;20456;-65
2022/01/03 18:12:17;;;;;;;6.83;2.50;;;9.80;99.70;;;;;;5011410;28;20457;-68
2022/01/03 18:14:44;;;;;;;5.63;2.43;;;9.80;99.70;;;;;;5011442;28;20476;-65